Time;durP1;ratioP1;P1;durP2;ratioP2;P2;SDS_P1;SDS_P2;PMS_P1;PMS_P2;Temp;Humidity;BMP_temperature;BMP_pressure;BME280_temperature;BME280_humidity;BME280_pressure;Samples;Min_cycle;Max_cycle;Signal;HPM_P1;HPM_P2
2023/02/15 00:01:11;;;;;;;;;;;;;;;-2.21;71.86;99998.47;5097160;28;19979;-75
2023/02/15 00:03:37;;;;;;;;;;;;;;;-2.19;72.04;100004.47;5104229;28;20421;-74
2023/02/15 00:06:03;;;;;;;;;;;;;;;-2.16;71.91;100011.31;5098819;28;19928;-75
2023/02/15 00:08:30;;;;;;;;;;;;;;;-2.17;72.15;99997.13;5075336;28;20058;-75
2023/02/15 00:11:03;;;;;;;;;;;;;;;-2.16;72.01;100005.97;5104911;28;19927;-75
2023/02/15 00:13:30;;;;;;;;;;;;;;;-2.15;72.14;100005.78;5093444;28;19985;-75
2023/02/15 00:16:00;;;;;;;;;;;;;;;-2.14;72.23;100010.13;5103081;28;19927;-75
2023/02/15 00:18:25;;;;;;;;;;;;;;;-2.15;72.17;100004.94;5104808;28;19953;-76
2023/02/15 00:20:51;;;;;;;;;;;;;;;-2.23;72.39;99997.84;5084686;28;20438;-76
2023/02/15 00:23:17;;;;;;;;;;;;;;;-2.11;72.25;100013.44;5080225;28;20068;-76
2023/02/15 00:25:43;;;;;;;;;;;;;;;-2.12;72.31;100009.94;5087888;28;19965;-76
2023/02/15 00:28:09;;;;;;;;;;;;;;;-2.12;72.17;100009.94;5104875;28;19973;-76
2023/02/15 00:30:36;;;;;;;;;;;;;;;-2.12;72.19;100014.47;5104030;28;19927;-75
2023/02/15 00:33:02;;;;;;;;;;;;;;;-2.15;72.17;100013.84;5101867;28;20317;-75
2023/02/15 00:35:28;;;;;;;;;;;;;;;-2.16;72.15;100022.88;5103587;28;20315;-75
2023/02/15 00:37:55;;;;;;;;;;;;;;;-2.19;72.39;100009.84;5086021;28;20649;-76
2023/02/15 00:40:22;;;;;;;;;;;;;;;-2.20;72.49;100016.22;5105445;28;19967;-75
2023/02/15 00:42:48;;;;;;;;;;;;;;;-2.18;72.28;100021.41;5100460;28;20110;-76
2023/02/15 00:45:14;;;;;;;;;;;;;;;-2.18;72.32;100024.94;5106108;28;19997;-75
2023/02/15 00:47:42;;;;;;;;;;;;;;;-2.16;72.26;100022.03;5103261;28;20028;-76
2023/02/15 00:50:08;;;;;;;;;;;;;;;-2.17;72.50;100017.69;5084123;28;20026;-76
2023/02/15 00:52:34;;;;;;;;;;;;;;;-2.17;72.49;100015.03;5103327;28;19928;-76
2023/02/15 00:54:59;;;;;;;;;;;;;;;-2.19;72.28;100019.75;5103970;28;19928;-76
2023/02/15 00:57:25;;;;;;;;;;;;;;;-2.19;72.34;100014.38;5079766;28;20153;-76
2023/02/15 00:59:51;;;;;;;;;;;;;;;-2.19;72.62;100019.75;5082437;28;19954;-76
2023/02/15 01:02:17;;;;;;;;;;;;;;;-2.21;72.67;100019.09;5106568;28;19934;-76
2023/02/15 01:04:44;;;;;;;;;;;;;;;-2.21;72.93;100021.78;5089860;28;20435;-76
2023/02/15 01:07:10;;;;;;;;;;;;;;;-2.19;72.83;100027.78;5105237;28;19927;-76
2023/02/15 01:09:36;;;;;;;;;;;;;;;-2.19;72.87;100025.09;5098573;28;19981;-75
2023/02/15 01:12:02;;;;;;;;;;;;;;;-2.21;72.84;100027.94;5097506;28;19927;-76
2023/02/15 01:14:28;;;;;;;;;;;;;;;-2.23;72.86;100024.63;5105614;28;19935;-76
2023/02/15 01:16:54;;;;;;;;;;;;;;;-2.24;72.61;100031.00;5105907;28;20335;-76
2023/02/15 01:19:20;;;;;;;;;;;;;;;-2.24;72.83;100019.47;5095246;28;20030;-76
2023/02/15 01:21:47;;;;;;;;;;;;;;;-2.23;72.78;100029.16;5081115;28;19928;-76
2023/02/15 01:24:13;;;;;;;;;;;;;;;-2.26;72.68;100026.84;5086978;28;19972;-76
2023/02/15 01:26:39;;;;;;;;;;;;;;;-2.28;72.79;100029.72;5103853;28;20412;-76
2023/02/15 01:29:05;;;;;;;;;;;;;;;-2.26;72.75;100034.88;5103156;28;19940;-76
2023/02/15 01:31:31;;;;;;;;;;;;;;;-2.26;72.44;100038.41;5103988;28;20341;-76
2023/02/15 01:33:57;;;;;;;;;;;;;;;-2.30;72.37;100039.78;5096105;28;20321;-76
2023/02/15 01:36:23;;;;;;;;;;;;;;;-2.34;72.70;100031.28;5104392;28;20480;-76
2023/02/15 01:38:50;;;;;;;;;;;;;;;-2.34;72.68;100035.78;5095056;28;19928;-76
2023/02/15 01:41:26;;;;;;;;;;;;;;;-2.38;72.47;100037.19;5097218;28;19939;-75
2023/02/15 01:43:53;;;;;;;;;;;;;;;-2.42;72.46;100037.56;5100546;28;19934;-75
2023/02/15 01:46:22;;;;;;;;;;;;;;;-2.44;72.80;100049.47;5087141;28;19928;-75
2023/02/15 01:48:51;;;;;;;;;;;;;;;-2.48;72.86;100048.19;5085463;28;20398;-75
2023/02/15 01:51:20;;;;;;;;;;;;;;;-2.47;73.13;100037.28;5101127;28;20206;-75
2023/02/15 01:53:48;;;;;;;;;;;;;;;-2.47;73.10;100039.97;5102475;28;20306;-75
2023/02/15 01:56:19;;;;;;;;;;;;;;;-2.47;73.05;100050.69;5100368;28;19927;-75
2023/02/15 01:58:49;;;;;;;;;;;;;;;-2.46;72.74;100046.13;5079910;28;20026;-75
2023/02/15 02:01:17;;;;;;;;;;;;;;;-2.47;72.75;100041.81;5101344;28;20011;-75
2023/02/15 02:03:47;;;;;;;;;;;;;;;-2.43;72.43;100051.13;5075340;28;20120;-75
2023/02/15 02:06:13;;;;;;;;;;;;;;;-2.44;72.39;100063.69;5076625;28;20039;-76
2023/02/15 02:08:39;;;;;;;;;;;;;;;-2.42;72.05;100059.00;5096078;28;19928;-75
2023/02/15 02:11:09;;;;;;;;;;;;;;;-2.37;71.75;100057.59;5083605;28;20161;-75
2023/02/15 02:13:44;;;;;;;;;;;;;;;-2.37;71.13;100055.78;5103513;28;19966;-75
2023/02/15 02:16:36;;;;;;;;;;;;;;;-2.38;70.64;100053.25;5097420;28;19928;-75
2023/02/15 02:19:12;;;;;;;;;;;;;;;-2.40;70.00;100044.59;5102038;28;19928;-75
2023/02/15 02:21:59;;;;;;;;;;;;;;;-2.43;69.71;100046.63;5098280;28;19928;-75
2023/02/15 02:24:44;;;;;;;;;;;;;;;-2.45;69.63;100059.38;5068995;28;19928;-75
2023/02/15 02:27:18;;;;;;;;;;;;;;;-2.43;69.85;100076.06;5103131;28;19935;-75
2023/02/15 02:29:59;;;;;;;;;;;;;;;-2.41;69.77;100065.19;5061291;28;19935;-75
2023/02/15 02:32:49;;;;;;;;;;;;;;;-2.40;69.70;100069.53;5097848;28;20020;-76
2023/02/15 02:35:19;;;;;;;;;;;;;;;-2.42;69.54;100058.13;5074886;28;20301;-75
2023/02/15 02:37:51;;;;;;;;;;;;;;;-2.44;69.11;100062.84;5094953;28;19938;-75
2023/02/15 02:40:20;;;;;;;;;;;;;;;-2.45;68.95;100067.41;5097552;28;19927;-74
2023/02/15 02:42:49;;;;;;;;;;;;;;;-2.48;69.00;100073.13;5103797;28;19939;-75
2023/02/15 02:45:16;;;;;;;;;;;;;;;-2.48;68.97;100072.28;5102356;28;20372;-75
2023/02/15 02:47:44;;;;;;;;;;;;;;;-2.52;68.85;100063.75;5094676;28;19927;-74
2023/02/15 02:50:13;;;;;;;;;;;;;;;-2.51;68.79;100065.44;5096580;28;19934;-76
2023/02/15 02:52:42;;;;;;;;;;;;;;;-2.53;68.84;100070.13;5102197;28;19949;-75
2023/02/15 02:55:11;;;;;;;;;;;;;;;-2.52;68.36;100071.00;5100318;28;19932;-75
2023/02/15 02:57:44;;;;;;;;;;;;;;;-2.55;68.57;100074.03;5103241;28;19927;-74
2023/02/15 03:00:11;;;;;;;;;;;;;;;-2.57;68.41;100079.56;5100468;28;20245;-75
2023/02/15 03:02:39;;;;;;;;;;;;;;;-2.59;68.63;100070.88;5108041;28;19934;-75
2023/02/15 03:05:08;;;;;;;;;;;;;;;-2.62;68.69;100072.06;5105451;28;19931;-74
2023/02/15 03:07:35;;;;;;;;;;;;;;;-2.62;68.71;100079.28;5085111;28;20343;-75
2023/02/15 03:10:04;;;;;;;;;;;;;;;-2.64;68.65;100082.13;5086754;28;19974;-75
2023/02/15 03:12:32;;;;;;;;;;;;;;;-2.65;68.66;100093.03;5105796;28;19966;-75
2023/02/15 03:15:01;;;;;;;;;;;;;;;-2.65;68.68;100095.72;5089596;28;19931;-75
2023/02/15 03:17:31;;;;;;;;;;;;;;;-2.65;68.63;100067.06;5107539;28;20026;-75
2023/02/15 03:20:01;;;;;;;;;;;;;;;-2.66;68.36;100094.88;5100781;28;19959;-75
2023/02/15 03:22:31;;;;;;;;;;;;;;;-2.77;68.45;100079.22;5103757;28;19928;-75
2023/02/15 03:25:00;;;;;;;;;;;;;;;-2.66;68.51;100077.97;5103811;28;19931;-74
2023/02/15 03:27:36;;;;;;;;;;;;;;;-2.65;68.38;100098.38;5103456;28;19928;-75
2023/02/15 03:30:03;;;;;;;;;;;;;;;-2.65;68.21;100104.56;5087132;28;20238;-75
2023/02/15 03:32:32;;;;;;;;;;;;;;;-2.65;68.16;100103.75;5090594;28;19928;-75
2023/02/15 03:34:58;;;;;;;;;;;;;;;-2.68;68.16;100096.91;5083358;28;19985;-75
2023/02/15 03:37:26;;;;;;;;;;;;;;;-2.71;68.47;100100.75;5105876;28;19927;-75
2023/02/15 03:39:54;;;;;;;;;;;;;;;-2.71;68.70;100103.44;5101433;28;19928;-75
2023/02/15 03:42:24;;;;;;;;;;;;;;;-2.71;68.52;100103.44;5104249;28;19963;-75
2023/02/15 03:44:55;;;;;;;;;;;;;;;-2.71;68.55;100095.41;5105436;28;19928;-75
2023/02/15 03:47:23;;;;;;;;;;;;;;;-2.74;68.46;100092.25;5070010;28;19928;-75
2023/02/15 03:49:52;;;;;;;;;;;;;;;-2.77;68.58;100087.25;5081856;28;19931;-75
2023/02/15 03:52:20;;;;;;;;;;;;;;;-2.79;68.66;100102.66;5105063;28;20560;-75
2023/02/15 03:54:46;;;;;;;;;;;;;;;-2.81;68.70;100100.19;5099455;28;20459;-75
2023/02/15 04:02:55;;;;;;;;;;;;;;;-2.88;68.84;100107.25;5102606;28;20417;-75
2023/02/15 04:05:21;;;;;;;;;;;;;;;-2.91;68.83;100099.59;5106814;28;19939;-75
2023/02/15 04:07:47;;;;;;;;;;;;;;;-2.94;68.67;100108.81;5095510;28;19928;-76
2023/02/15 04:12:57;;;;;;;;;;;;;;;-2.96;68.36;100108.16;5101879;28;19928;-75
2023/02/15 04:18:08;;;;;;;;;;;;;;;-2.94;68.35;100116.00;5101264;28;20318;-75
2023/02/15 04:26:04;;;;;;;;;;;;;;;-2.96;68.96;100115.34;5104612;28;20013;-75
2023/02/15 04:28:30;;;;;;;;;;;;;;;-2.96;69.18;100118.84;5079701;28;20015;-75
2023/02/15 04:30:58;;;;;;;;;;;;;;;-2.99;69.32;100120.03;5090289;27;19928;-75
2023/02/15 04:33:24;;;;;;;;;;;;;;;-2.99;68.90;100105.84;5103410;28;19976;-76
2023/02/15 04:35:50;;;;;;;;;;;;;;;-3.02;68.69;100117.72;5086237;28;19928;-75
2023/02/15 04:38:15;;;;;;;;;;;;;;;-3.03;68.25;100120.59;5104731;28;19932;-75
2023/02/15 04:40:41;;;;;;;;;;;;;;;-3.06;67.92;100115.56;5106111;28;19927;-75
2023/02/15 04:43:07;;;;;;;;;;;;;;;-3.09;67.81;100111.41;5105073;28;19974;-75
2023/02/15 04:45:33;;;;;;;;;;;;;;;-3.09;67.75;100121.28;5108586;28;20031;-75
2023/02/15 04:48:00;;;;;;;;;;;;;;;-3.11;67.10;100118.81;5103233;28;20465;-76
2023/02/15 04:50:26;;;;;;;;;;;;;;;-3.11;66.92;100121.47;5086676;28;20068;-76
2023/02/15 04:52:52;;;;;;;;;;;;;;;-3.11;66.74;100126.81;5102723;28;19935;-75
2023/02/15 04:55:17;;;;;;;;;;;;;;;-3.13;66.67;100121.63;5106513;27;19927;-75
2023/02/15 04:57:43;;;;;;;;;;;;;;;-3.14;66.68;100127.16;5105089;28;19962;-76
2023/02/15 05:00:09;;;;;;;;;;;;;;;-3.13;66.64;100124.31;5087342;28;20374;-76
2023/02/15 05:02:35;;;;;;;;;;;;;;;-3.13;66.50;100118.97;5102719;28;19934;-76
2023/02/15 05:05:02;;;;;;;;;;;;;;;-3.14;66.37;100128.00;5105237;28;20039;-75
2023/02/15 05:07:28;;;;;;;;;;;;;;;-3.15;66.13;100129.00;5107937;28;19931;-75
2023/02/15 05:09:54;;;;;;;;;;;;;;;-3.16;66.23;100137.19;5104516;28;19989;-75
2023/02/15 05:12:20;;;;;;;;;;;;;;;-3.14;66.59;100137.84;5097235;28;19928;-75
2023/02/15 05:14:46;;;;;;;;;;;;;;;-3.13;66.24;100129.66;5085184;28;20308;-76
2023/02/15 05:17:12;;;;;;;;;;;;;;;-3.13;66.05;100140.38;5102109;28;19932;-75
2023/02/15 05:19:38;;;;;;;;;;;;;;;-3.16;65.60;100154.09;5101985;28;19985;-75
2023/02/15 05:22:05;;;;;;;;;;;;;;;-3.14;66.05;100148.56;5086408;28;19927;-76
2023/02/15 05:29:59;;;;;;;;;;;;;;;-3.16;66.59;100153.25;5100008;28;19927;-75
2023/02/15 05:32:25;;;;;;;;;;;;;;;-3.21;66.85;100156.44;5080962;28;19951;-75
2023/02/15 05:34:50;;;;;;;;;;;;;;;-3.22;66.79;100160.13;5103897;28;19928;-75
2023/02/15 05:37:18;;;;;;;;;;;;;;;-3.21;66.50;100163.66;5086422;28;20420;-74
2023/02/15 05:39:47;;;;;;;;;;;;;;;-3.23;66.20;100152.31;5096203;28;20018;-74
2023/02/15 05:42:13;;;;;;;;;;;;;;;-3.23;66.20;100166.50;5099773;28;19928;-75
2023/02/15 05:44:39;;;;;;;;;;;;;;;-3.23;66.14;100166.50;5092392;28;19927;-75
2023/02/15 05:47:06;;;;;;;;;;;;;;;-3.22;65.99;100170.84;5093084;28;19935;-76
2023/02/15 05:49:32;;;;;;;;;;;;;;;-3.20;65.68;100160.81;5085336;28;19931;-76
2023/02/15 05:51:58;;;;;;;;;;;;;;;-3.24;65.57;100164.00;5094580;28;20454;-74
2023/02/15 05:54:26;;;;;;;;;;;;;;;-3.28;65.36;100159.03;5106035;28;19927;-74
2023/02/15 05:56:52;;;;;;;;;;;;;;;-3.26;65.54;100160.69;5105963;28;19935;-74
2023/02/15 05:59:17;;;;;;;;;;;;;;;-3.29;65.65;100168.03;5103508;28;20318;-75
2023/02/15 06:01:43;;;;;;;;;;;;;;;-3.29;65.62;100164.53;5100527;28;20313;-75
2023/02/15 06:04:09;;;;;;;;;;;;;;;-3.28;65.64;100167.03;5083780;28;19927;-74
2023/02/15 06:06:35;;;;;;;;;;;;;;;-3.25;65.45;100167.69;5100517;28;20081;-75
2023/02/15 06:09:01;;;;;;;;;;;;;;;-3.19;65.35;100177.69;5103164;28;20026;-74
2023/02/15 06:11:28;;;;;;;;;;;;;;;-3.15;65.06;100169.16;5103788;28;19928;-74
2023/02/15 06:13:54;;;;;;;;;;;;;;;-3.10;65.01;100179.31;5087855;28;19928;-75
2023/02/15 06:16:20;;;;;;;;;;;;;;;-3.06;64.66;100177.09;5103973;28;20420;-74
2023/02/15 06:18:46;;;;;;;;;;;;;;;-3.07;64.49;100178.13;5097717;28;19927;-74
2023/02/15 06:21:12;;;;;;;;;;;;;;;-3.11;64.58;100183.00;5100416;28;20352;-74
2023/02/15 06:23:38;;;;;;;;;;;;;;;-3.13;64.48;100180.50;5069198;28;19992;-74
2023/02/15 06:26:04;;;;;;;;;;;;;;;-3.14;64.32;100181.50;5099838;28;19932;-75
2023/02/15 06:28:31;;;;;;;;;;;;;;;-3.13;64.24;100191.19;5085015;28;19932;-75
2023/02/15 06:31:02;;;;;;;;;;;;;;;-3.18;64.58;100195.41;5106943;28;20030;-75
2023/02/15 06:33:30;;;;;;;;;;;;;;;-3.17;64.70;100189.91;5099368;28;19971;-76
2023/02/15 06:35:56;;;;;;;;;;;;;;;-3.15;64.62;100187.03;5101310;27;19935;-77
2023/02/15 06:38:22;;;;;;;;;;;;;;;-3.14;64.74;100194.03;5105646;28;20377;-76
2023/02/15 06:40:48;;;;;;;;;;;;;;;-3.14;64.69;100184.19;5107302;28;20379;-75
2023/02/15 06:43:14;;;;;;;;;;;;;;;-3.15;64.69;100192.38;5104864;28;19932;-75
2023/02/15 06:45:42;;;;;;;;;;;;;;;-3.16;64.76;100194.22;5107288;28;19932;-76
2023/02/15 06:48:08;;;;;;;;;;;;;;;-3.18;64.88;100185.56;5096841;28;19951;-76
2023/02/15 06:50:34;;;;;;;;;;;;;;;-3.17;64.67;100191.72;5095770;28;19927;-76
2023/02/15 06:53:00;;;;;;;;;;;;;;;-3.17;64.77;100202.41;5077534;28;19967;-76
2023/02/15 06:55:26;;;;;;;;;;;;;;;-3.17;64.59;100200.59;5108122;28;19966;-75
2023/02/15 06:57:53;;;;;;;;;;;;;;;-3.19;64.47;100199.09;5105597;28;19928;-75
2023/02/15 07:00:20;;;;;;;;;;;;;;;-3.19;64.58;100191.91;5104610;28;19961;-75
2023/02/15 07:02:47;;;;;;;;;;;;;;;-3.16;64.47;100196.06;5100976;28;19934;-76
2023/02/15 07:05:13;;;;;;;;;;;;;;;-3.13;64.44;100203.72;5105044;28;20383;-76
2023/02/15 07:07:39;;;;;;;;;;;;;;;-3.05;64.62;100197.50;5103920;28;19955;-76
2023/02/15 07:10:06;;;;;;;;;;;;;;;-3.01;64.30;100207.69;5105172;28;20012;-76
2023/02/15 07:12:47;;;;;;;;;;;;;;;-2.94;64.40;100205.13;5099441;28;19979;-76
2023/02/15 07:15:13;;;;;;;;;;;;;;;-2.89;64.45;100212.66;5101565;28;19927;-75
2023/02/15 07:17:39;;;;;;;;;;;;;;;-2.84;64.48;100204.91;5099366;28;20032;-75
2023/02/15 07:20:08;;;;;;;;;;;;;;;-2.90;64.49;100200.28;5102103;28;19974;-75
2023/02/15 07:22:35;;;;;;;;;;;;;;;-2.82;64.44;100213.59;5068362;28;19935;-76
2023/02/15 07:25:02;;;;;;;;;;;;;;;-2.75;64.58;100208.38;5100196;28;19952;-76
2023/02/15 07:27:28;;;;;;;;;;;;;;;-2.69;64.33;100205.00;5101502;28;19927;-76
2023/02/15 07:29:54;;;;;;;;;;;;;;;-2.64;64.38;100199.94;5084190;28;19997;-76
2023/02/15 07:32:20;;;;;;;;;;;;;;;-2.68;64.18;100204.00;5105173;28;19959;-76
2023/02/15 07:34:45;;;;;;;;;;;;;;;-2.76;64.61;100210.22;5103594;28;20406;-76
2023/02/15 07:37:13;;;;;;;;;;;;;;;-2.72;64.98;100218.75;5077816;28;20005;-76
2023/02/15 07:39:39;;;;;;;;;;;;;;;-2.60;64.75;100213.81;5096109;28;19928;-77
2023/02/15 07:42:05;;;;;;;;;;;;;;;-2.53;64.84;100214.75;5081959;28;19966;-75
2023/02/15 07:44:30;;;;;;;;;;;;;;;-2.44;64.77;100211.00;5097896;28;20013;-74
2023/02/15 07:46:56;;;;;;;;;;;;;;;-2.39;64.33;100199.75;5102302;28;20378;-75
2023/02/15 07:49:22;;;;;;;;;;;;;;;-2.42;64.07;100211.66;5105441;28;19932;-74
2023/02/15 07:51:48;;;;;;;;;;;;;;;-2.41;64.31;100220.53;5106442;28;20390;-75
2023/02/15 07:54:16;;;;;;;;;;;;;;;-2.40;64.21;100216.00;5110273;28;19927;-75
2023/02/15 07:56:42;;;;;;;;;;;;;;;-2.40;64.14;100211.50;5110063;28;19981;-74
2023/02/15 07:59:08;;;;;;;;;;;;;;;-2.40;64.10;100219.53;5107973;28;19928;-75
2023/02/15 08:01:35;;;;;;;;;;;;;;;-2.44;64.00;100221.72;5103935;28;20018;-74
2023/02/15 08:04:02;;;;;;;;;;;;;;;-2.47;64.30;100237.31;5110628;28;20026;-75
2023/02/15 08:06:29;;;;;;;;;;;;;;;-2.53;64.30;100222.78;5107418;28;19931;-74
2023/02/15 08:08:55;;;;;;;;;;;;;;;-2.58;64.75;100233.22;5099722;28;20030;-75
2023/02/15 08:11:28;;;;;;;;;;;;;;;-2.57;64.66;100235.72;5087765;28;20030;-76
2023/02/15 08:13:55;;;;;;;;;;;;;;;-2.54;64.31;100241.72;5101239;28;19934;-76
2023/02/15 08:16:22;;;;;;;;;;;;;;;-2.49;64.34;100236.66;5086573;28;19928;-76
2023/02/15 08:18:48;;;;;;;;;;;;;;;-2.44;63.93;100248.50;5108323;28;19975;-76
2023/02/15 08:21:14;;;;;;;;;;;;;;;-2.41;63.77;100231.25;5099994;28;20398;-76
2023/02/15 08:23:39;;;;;;;;;;;;;;;-2.41;63.23;100241.97;5101553;28;20034;-76
2023/02/15 08:26:06;;;;;;;;;;;;;;;-2.43;63.49;100239.47;5090248;28;20030;-76
2023/02/15 08:28:33;;;;;;;;;;;;;;;-2.42;63.39;100259.88;5108454;28;19928;-76
2023/02/15 08:31:03;;;;;;;;;;;;;;;-2.39;63.41;100263.19;5110184;28;19931;-76
2023/02/15 08:33:29;;;;;;;;;;;;;;;-2.41;63.47;100258.03;5107997;28;20165;-76
2023/02/15 08:35:55;;;;;;;;;;;;;;;-2.41;63.23;100268.75;5087287;28;19950;-77
2023/02/15 08:38:24;;;;;;;;;;;;;;;-2.46;62.99;100261.25;5091423;28;19927;-74
2023/02/15 08:40:50;;;;;;;;;;;;;;;-2.53;63.11;100268.31;5101183;28;19981;-74
2023/02/15 08:43:16;;;;;;;;;;;;;;;-2.54;63.41;100265.81;5088422;28;19939;-76
2023/02/15 08:45:43;;;;;;;;;;;;;;;-2.52;63.65;100261.94;5106524;28;19931;-75
2023/02/15 08:48:09;;;;;;;;;;;;;;;-2.46;63.41;100260.41;5107382;28;19938;-74
2023/02/15 08:50:35;;;;;;;;;;;;;;;-2.45;63.68;100273.63;5108874;28;19931;-74
2023/02/15 08:53:01;;;;;;;;;;;;;;;-2.46;63.74;100271.97;5105473;28;19927;-75
2023/02/15 08:55:26;;;;;;;;;;;;;;;-2.47;63.96;100272.97;5104434;28;20182;-74
2023/02/15 08:57:55;;;;;;;;;;;;;;;-2.47;64.24;100285.53;5107144;28;19928;-75
2023/02/15 09:00:25;;;;;;;;;;;;;;;-2.48;64.43;100263.28;5104217;28;19928;-74
2023/02/15 09:02:52;;;;;;;;;;;;;;;-2.44;64.53;100277.13;5082702;28;20035;-74
2023/02/15 09:05:18;;;;;;;;;;;;;;;-2.38;64.54;100256.84;5107665;28;20314;-75
2023/02/15 09:07:44;;;;;;;;;;;;;;;-2.38;64.88;100264.88;5104515;28;19934;-74
2023/02/15 09:10:09;;;;;;;;;;;;;;;-2.35;65.35;100269.88;5089580;28;19980;-74
2023/02/15 09:12:35;;;;;;;;;;;;;;;-2.24;64.97;100268.63;5100955;28;20038;-76
2023/02/15 09:15:01;;;;;;;;;;;;;;;-2.19;64.75;100274.28;5102054;28;20400;-76
2023/02/15 09:17:28;;;;;;;;;;;;;;;-2.18;64.92;100273.28;5107187;28;20527;-74
2023/02/15 09:19:56;;;;;;;;;;;;;;;-2.18;65.25;100273.28;5088800;28;19928;-74
2023/02/15 09:22:21;;;;;;;;;;;;;;;-2.18;65.43;100279.47;5066115;28;19970;-74
2023/02/15 09:24:47;;;;;;;;;;;;;;;-2.16;65.47;100282.81;5106732;28;19959;-75
2023/02/15 09:27:13;;;;;;;;;;;;;;;-2.09;65.12;100264.16;5107532;27;19928;-74
2023/02/15 09:29:39;;;;;;;;;;;;;;;-2.11;64.48;100268.03;5106342;28;19927;-74
2023/02/15 09:32:05;;;;;;;;;;;;;;;-2.15;64.45;100279.13;5099184;28;19960;-75
2023/02/15 09:34:31;;;;;;;;;;;;;;;-2.07;64.53;100278.22;5086025;28;19927;-75
2023/02/15 09:36:58;;;;;;;;;;;;;;;-2.04;64.61;100285.03;5090404;28;19973;-76
2023/02/15 09:39:25;;;;;;;;;;;;;;;-2.04;64.70;100282.34;5099436;28;19981;-76
2023/02/15 09:42:11;;;;;;;;;;;;;;;-2.00;64.88;100287.19;5103073;28;19928;-76
2023/02/15 09:44:43;;;;;;;;;;;;;;;-1.94;64.91;100291.00;5106107;28;19928;-77
2023/02/15 09:47:15;;;;;;;;;;;;;;;-1.89;64.77;100291.28;5072824;28;20381;-75
2023/02/15 09:49:48;;;;;;;;;;;;;;;-1.90;64.55;100303.03;5106898;28;19936;-76
2023/02/15 09:52:27;;;;;;;;;;;;;;;-1.88;64.64;100305.53;5095247;28;20013;-76
2023/02/15 09:55:01;;;;;;;;;;;;;;;-1.94;64.50;100299.03;5093382;28;19954;-76
2023/02/15 09:57:30;;;;;;;;;;;;;;;-1.96;64.81;100303.75;5085128;28;19927;-75
2023/02/15 10:00:03;;;;;;;;;;;;;;;-1.97;64.84;100293.19;5106182;28;20315;-75
2023/02/15 10:02:45;;;;;;;;;;;;;;;-2.05;64.98;100311.03;5108980;28;19981;-76
2023/02/15 10:05:21;;;;;;;;;;;;;;;-2.08;65.26;100310.53;5107869;28;19970;-77
2023/02/15 10:08:08;;;;;;;;;;;;;;;-2.06;65.70;100317.41;5101385;28;20027;-75
2023/02/15 10:10:41;;;;;;;;;;;;;;;-2.05;65.81;100319.06;5088556;28;20425;-75
2023/02/15 10:13:17;;;;;;;;;;;;;;;-2.07;65.64;100321.09;5107189;28;19927;-75
2023/02/15 10:15:53;;;;;;;;;;;;;;;-2.09;65.65;100312.41;5102757;28;19927;-75
2023/02/15 10:18:28;;;;;;;;;;;;;;;-2.17;65.42;100320.50;5107372;28;20406;-75
2023/02/15 10:20:57;;;;;;;;;;;;;;;-2.21;65.42;100321.88;5103010;28;20975;-75
2023/02/15 10:23:42;;;;;;;;;;;;;;;-2.20;65.54;100310.13;5088885;28;20657;-74
2023/02/15 10:26:13;;;;;;;;;;;;;;;-2.19;65.05;100309.94;5103122;28;19928;-74
2023/02/15 10:28:43;;;;;;;;;;;;;;;-2.21;64.83;100317.31;5107974;28;19927;-74
2023/02/15 10:31:17;;;;;;;;;;;;;;;-2.22;64.78;100325.56;5107511;28;20399;-74
2023/02/15 10:33:43;;;;;;;;;;;;;;;-2.25;65.08;100331.28;5103012;28;19934;-77
2023/02/15 10:36:19;;;;;;;;;;;;;;;-2.23;65.46;100335.44;5102282;28;19934;-76
2023/02/15 10:38:53;;;;;;;;;;;;;;;-2.19;66.06;100330.56;5084270;28;19941;-75
2023/02/15 10:41:29;;;;;;;;;;;;;;;-2.14;66.00;100333.53;5105233;28;20352;-76
2023/02/15 10:44:10;;;;;;;;;;;;;;;-2.15;65.93;100330.03;5105555;28;19935;-75
2023/02/15 10:47:04;;;;;;;;;;;;;;;-2.15;65.99;100334.53;5087357;28;19950;-74
2023/02/15 10:49:37;;;;;;;;;;;;;;;-2.10;65.79;100336.69;5108210;28;20421;-76
2023/02/15 10:52:11;;;;;;;;;;;;;;;-2.09;65.57;100346.41;5107950;28;19935;-75
2023/02/15 10:54:41;;;;;;;;;;;;;;;-2.06;65.71;100351.41;5083047;28;19935;-76
2023/02/15 10:57:12;;;;;;;;;;;;;;;-2.00;65.49;100345.34;5080159;28;19927;-76
2023/02/15 10:59:48;;;;;;;;;;;;;;;-2.04;65.65;100355.56;5097882;28;19928;-75
2023/02/15 11:02:19;;;;;;;;;;;;;;;-2.06;65.77;100354.91;5097504;28;20035;-75
2023/02/15 11:04:55;;;;;;;;;;;;;;;-2.08;66.33;100356.09;5103696;28;20026;-74
2023/02/15 11:07:23;;;;;;;;;;;;;;;-2.15;66.49;100364.88;5105409;28;19959;-77
2023/02/15 11:09:54;;;;;;;;;;;;;;;-2.18;66.62;100365.22;5108906;28;19931;-77
2023/02/15 11:12:22;;;;;;;;;;;;;;;-2.17;66.85;100363.38;5085422;28;19928;-75
2023/02/15 11:14:53;;;;;;;;;;;;;;;-2.08;66.71;100361.47;5103515;28;19932;-74
2023/02/15 11:17:23;;;;;;;;;;;;;;;-2.09;66.32;100352.59;5108512;28;20046;-75
2023/02/15 11:19:54;;;;;;;;;;;;;;;-2.17;66.06;100360.69;5110442;28;20030;-75
2023/02/15 11:22:20;;;;;;;;;;;;;;;-2.19;66.15;100368.88;5112048;28;20398;-76
2023/02/15 11:24:46;;;;;;;;;;;;;;;-2.20;65.47;100353.00;5110673;28;20042;-76
2023/02/15 11:27:19;;;;;;;;;;;;;;;-2.25;65.58;100368.78;5099491;28;19928;-76
2023/02/15 11:29:48;;;;;;;;;;;;;;;-2.33;65.89;100373.16;5110243;28;20433;-76
2023/02/15 11:32:17;;;;;;;;;;;;;;;-2.36;66.10;100378.03;5106095;28;20398;-76
2023/02/15 11:34:49;;;;;;;;;;;;;;;-2.30;65.51;100386.19;5092530;28;19928;-76
2023/02/15 11:37:18;;;;;;;;;;;;;;;-2.34;65.03;100371.50;5102216;28;20003;-76
2023/02/15 11:39:44;;;;;;;;;;;;;;;-2.33;64.19;100373.16;5111370;28;19955;-75
2023/02/15 11:42:13;;;;;;;;;;;;;;;-2.35;63.67;100385.91;5098879;28;19993;-76
2023/02/15 11:44:44;;;;;;;;;;;;;;;-2.38;63.57;100388.09;5110859;28;19928;-76
2023/02/15 11:47:11;;;;;;;;;;;;;;;-2.36;63.62;100388.75;5087538;28;19931;-76
2023/02/15 11:49:38;;;;;;;;;;;;;;;-2.33;63.78;100385.75;5093175;28;19935;-75
2023/02/15 11:52:06;;;;;;;;;;;;;;;-2.39;63.79;100384.59;5102030;28;20346;-75
2023/02/15 11:54:33;;;;;;;;;;;;;;;-2.44;64.02;100385.13;5090962;28;20460;-76
2023/02/15 11:57:01;;;;;;;;;;;;;;;-2.48;63.79;100388.31;5108720;28;19936;-76
2023/02/15 11:59:28;;;;;;;;;;;;;;;-2.45;63.59;100396.00;5093766;28;19928;-76
2023/02/15 12:01:55;;;;;;;;;;;;;;;-2.42;63.38;100399.16;5104277;28;19977;-75
2023/02/15 12:04:23;;;;;;;;;;;;;;;-2.40;63.07;100409.72;5109936;28;19927;-76
2023/02/15 12:06:53;;;;;;;;;;;;;;;-2.44;62.63;100397.66;5083104;28;19971;-76
2023/02/15 12:09:24;;;;;;;;;;;;;;;-2.50;62.51;100401.84;5099944;28;20034;-76
2023/02/15 12:11:50;;;;;;;;;;;;;;;-2.54;62.66;100397.88;5109191;28;19932;-76
2023/02/15 12:14:16;;;;;;;;;;;;;;;-2.50;62.46;100412.56;5110065;28;19980;-77
2023/02/15 12:16:43;;;;;;;;;;;;;;;-2.49;62.49;100414.28;5110637;28;19927;-76
2023/02/15 12:19:20;;;;;;;;;;;;;;;-2.50;62.39;100411.75;5110766;28;19932;-76
2023/02/15 12:21:49;;;;;;;;;;;;;;;-2.52;62.43;100413.78;5111670;28;20454;-76
2023/02/15 12:24:18;;;;;;;;;;;;;;;-2.59;62.74;100413.63;5108843;28;19953;-76
2023/02/15 12:26:43;;;;;;;;;;;;;;;-2.57;62.66;100417.81;5108658;28;20389;-77
2023/02/15 12:29:15;;;;;;;;;;;;;;;-2.55;62.77;100422.16;5087069;28;19928;-76
2023/02/15 12:31:43;;;;;;;;;;;;;;;-2.56;62.81;100426.66;5113746;27;19928;-75
2023/02/15 12:34:11;;;;;;;;;;;;;;;-2.59;63.25;100421.66;5105554;28;20018;-75
2023/02/15 12:36:46;;;;;;;;;;;;;;;-2.66;63.81;100432.22;5108195;28;20533;-76
2023/02/15 12:39:20;;;;;;;;;;;;;;;-2.68;64.20;100436.06;5103054;28;20204;-76
2023/02/15 12:41:56;;;;;;;;;;;;;;;-2.69;64.54;100445.97;5110035;28;19936;-76
2023/02/15 12:44:25;;;;;;;;;;;;;;;-2.67;64.74;100440.41;5106541;28;20024;-74
2023/02/15 12:46:58;;;;;;;;;;;;;;;-2.67;64.30;100440.41;5108258;28;19927;-75
2023/02/15 12:49:24;;;;;;;;;;;;;;;-2.72;64.06;100441.78;5089149;28;19928;-75
2023/02/15 12:51:52;;;;;;;;;;;;;;;-2.75;63.84;100441.28;5104295;28;20106;-74
2023/02/15 12:54:28;;;;;;;;;;;;;;;-2.78;64.12;100455.88;5106376;28;19935;-75
2023/02/15 12:56:54;;;;;;;;;;;;;;;-2.77;64.01;100459.38;5101222;28;19974;-75
2023/02/15 12:59:20;;;;;;;;;;;;;;;-2.77;63.64;100462.03;5109454;28;19955;-75
2023/02/15 13:01:47;;;;;;;;;;;;;;;-2.83;63.54;100460.88;5080832;28;19938;-74
2023/02/15 13:04:18;;;;;;;;;;;;;;;-2.82;63.54;100475.94;5108952;27;20479;-76
2023/02/15 13:06:48;;;;;;;;;;;;;;;-2.80;63.37;100457.03;5102779;28;19973;-74